createdAt,value
2022-08-02T00:00:58.006Z,60.51
2022-08-02T00:06:01.088Z,66.23
2022-08-02T00:11:04.988Z,60.72
2022-08-02T00:16:16.932Z,55.70
2022-08-02T00:21:20.119Z,57.23
2022-08-02T00:26:23.050Z,59.45
2022-08-02T00:31:26.071Z,60.59
2022-08-02T00:36:29.457Z,66.87
2022-08-02T00:41:32.319Z,61.00
2022-08-02T00:46:35.224Z,55.62
2022-08-02T00:51:39.261Z,56.68
2022-08-02T00:56:50.021Z,58.75
2022-08-02T01:01:58.139Z,60.34
2022-08-02T01:07:12.304Z,67.09
2022-08-02T01:12:17.026Z,61.96
2022-08-02T01:17:34.518Z,56.08
2022-08-02T01:23:01.588Z,56.94
2022-08-02T01:28:26.148Z,58.51
2022-08-02T01:33:43.062Z,65.60
2022-08-02T01:38:53.490Z,60.40
2022-08-02T01:43:59.551Z,55.36
2022-08-02T01:49:08.515Z,56.96
2022-08-02T01:54:17.705Z,58.93
2022-08-02T01:59:23.154Z,60.48
2022-08-02T02:04:29.302Z,67.37
2022-08-02T02:09:37.389Z,61.81
2022-08-02T02:14:56.173Z,56.35
2022-08-02T02:20:01.949Z,57.61
2022-08-02T02:25:06.567Z,59.24
2022-08-02T02:30:10.077Z,65.95
2022-08-02T02:35:16.476Z,60.84
2022-08-02T02:40:20.725Z,55.79
2022-08-02T02:45:24.290Z,57.71
2022-08-02T02:50:28.718Z,60.15
2022-08-02T02:55:32.083Z,65.90
2022-08-02T03:00:53.816Z,60.90
2022-08-02T03:05:56.790Z,55.89
2022-08-02T03:11:00.325Z,58.18
2022-08-02T03:16:03.774Z,60.53
2022-08-02T03:21:08.798Z,66.33
2022-08-02T03:26:12.620Z,61.42
2022-08-02T03:31:15.697Z,56.54
2022-08-02T03:36:21.702Z,57.95
2022-08-02T03:41:25.568Z,60.32
2022-08-02T03:46:28.950Z,66.11
2022-08-02T03:51:31.961Z,60.76
2022-08-02T03:56:35.270Z,55.98
2022-08-02T04:01:38.295Z,58.51
2022-08-02T04:06:41.853Z,60.61
2022-08-02T04:11:44.828Z,66.32
2022-08-02T04:16:53.784Z,60.35
2022-08-02T04:22:00.061Z,55.82
2022-08-02T04:27:19.249Z,58.09
2022-08-02T04:32:27.976Z,59.63
2022-08-02T04:37:31.193Z,65.99
2022-08-02T04:42:34.302Z,60.75
2022-08-02T04:48:02.139Z,55.92
2022-08-02T04:53:00.140Z,58.05
2022-08-02T04:58:04.253Z,60.50
2022-08-02T05:03:12.727Z,66.16
2022-08-02T05:08:15.620Z,60.94
2022-08-02T05:13:18.556Z,55.83
2022-08-02T05:18:21.759Z,57.34
2022-08-02T05:23:24.699Z,59.26
2022-08-02T05:28:28.116Z,65.25
2022-08-02T05:33:31.079Z,60.38
2022-08-02T05:38:36.942Z,55.63
2022-08-02T05:43:40.581Z,56.97
2022-08-02T05:48:45.066Z,59.13
2022-08-02T05:53:56.946Z,65.60
2022-08-02T05:59:13.862Z,59.95
2022-08-02T06:04:26.286Z,55.76
2022-08-02T06:09:29.548Z,57.96
2022-08-02T06:14:33.800Z,59.32
2022-08-02T06:19:51.858Z,65.21
2022-08-02T06:24:58.954Z,59.53
2022-08-02T06:30:03.569Z,55.32
2022-08-02T06:35:09.470Z,57.18
2022-08-02T06:40:35.950Z,58.75
2022-08-02T06:45:40.119Z,60.09
2022-08-02T06:50:44.398Z,66.10
2022-08-02T06:55:47.383Z,59.90
2022-08-02T07:00:50.655Z,55.22
2022-08-02T07:05:54.183Z,57.17
2022-08-02T07:10:58.436Z,59.45
2022-08-02T07:16:02.742Z,64.60
2022-08-02T07:21:06.341Z,59.32
2022-08-02T07:26:13.082Z,54.92
2022-08-02T07:31:16.052Z,56.84
2022-08-02T07:36:22.432Z,58.78
2022-08-02T07:41:26.124Z,60.28
2022-08-02T07:46:29.176Z,64.30
2022-08-02T07:51:33.554Z,57.66
2022-08-02T07:56:37.470Z,57.55
2022-08-02T08:01:45.009Z,59.36
2022-08-02T08:06:52.148Z,60.88
2022-08-02T08:11:55.076Z,64.98
2022-08-02T08:16:57.960Z,56.87
2022-08-02T08:22:01.019Z,57.82
2022-08-02T08:27:05.866Z,59.11
2022-08-02T08:32:15.676Z,60.41
2022-08-02T08:37:19.544Z,64.38
2022-08-02T08:42:22.421Z,56.66
2022-08-02T08:47:39.928Z,55.80
2022-08-02T08:52:53.630Z,57.46
2022-08-02T08:57:58.762Z,59.77
2022-08-02T09:03:06.274Z,60.10
2022-08-02T09:08:13.458Z,60.94
2022-08-02T09:13:38.591Z,64.27
2022-08-02T09:18:48.676Z,56.08
2022-08-02T09:23:53.009Z,56.42
2022-08-02T09:29:02.636Z,57.97
2022-08-02T09:34:05.929Z,57.99
2022-08-02T09:39:14.627Z,59.08
2022-08-02T09:44:17.596Z,59.47
2022-08-02T09:49:20.780Z,60.39
2022-08-02T09:54:29.339Z,60.66
2022-08-02T09:59:32.592Z,60.49
2022-08-02T10:04:52.552Z,60.64
2022-08-02T10:09:57.402Z,60.43
2022-08-02T10:15:00.450Z,60.72
2022-08-02T10:20:04.895Z,60.78
2022-08-02T10:25:09.174Z,59.98
2022-08-02T10:30:12.814Z,59.96
2022-08-02T10:35:25.000Z,59.07
2022-08-02T10:41:02.982Z,57.75
2022-08-02T10:46:29.726Z,57.88
2022-08-02T10:52:13.747Z,57.61
2022-08-02T10:57:26.232Z,58.60
2022-08-02T11:02:44.273Z,58.03
2022-08-02T11:07:50.019Z,57.71
2022-08-02T11:13:04.946Z,58.13
2022-08-02T11:18:07.852Z,57.25
2022-08-02T11:23:45.084Z,58.10
2022-08-02T11:28:50.135Z,57.47
2022-08-02T11:33:53.122Z,56.86
2022-08-02T11:39:12.664Z,56.82
2022-08-02T11:44:19.893Z,57.08
2022-08-02T11:49:27.114Z,56.31
2022-08-02T11:54:32.540Z,55.94
2022-08-02T11:59:40.327Z,55.69
2022-08-02T12:04:44.167Z,55.51
2022-08-02T12:09:47.073Z,55.18
2022-08-02T12:14:51.963Z,54.21
2022-08-02T12:19:54.932Z,54.05
2022-08-02T12:24:58.663Z,54.06
2022-08-02T12:30:06.840Z,52.64
2022-08-02T12:35:26.686Z,53.21
2022-08-02T12:40:32.459Z,52.82
2022-08-02T12:45:55.683Z,51.94
2022-08-02T12:50:58.869Z,50.61
2022-08-02T12:56:03.901Z,51.11
2022-08-02T13:01:07.260Z,49.65
2022-08-02T13:06:29.484Z,49.54
2022-08-02T13:11:33.221Z,48.99
2022-08-02T13:16:36.059Z,48.34
2022-08-02T13:21:41.194Z,48.98
2022-08-02T13:27:05.192Z,48.57
2022-08-02T13:32:11.962Z,49.26
2022-08-02T13:37:15.365Z,49.94
2022-08-02T13:42:18.509Z,50.12
2022-08-02T13:47:26.704Z,49.56
2022-08-02T13:52:39.442Z,50.05
2022-08-02T13:57:42.456Z,50.27
2022-08-02T14:02:45.468Z,49.70
2022-08-02T14:07:48.350Z,48.69
2022-08-02T14:12:56.749Z,48.46
2022-08-02T14:17:59.714Z,48.34
2022-08-02T14:23:02.558Z,47.26
2022-08-02T14:28:06.677Z,46.00
2022-08-02T14:33:09.623Z,45.99
2022-08-02T14:38:12.779Z,46.42
2022-08-02T14:43:34.278Z,46.74
2022-08-02T14:48:37.095Z,46.77
2022-08-02T14:53:49.436Z,47.09
2022-08-02T14:59:04.936Z,47.74
2022-08-02T15:04:07.993Z,47.83
2022-08-02T15:09:10.981Z,47.76
2022-08-02T15:14:13.958Z,48.47
2022-08-02T15:19:16.969Z,49.86
2022-08-02T15:24:22.083Z,50.04
2022-08-02T15:29:25.006Z,51.26
2022-08-02T15:34:27.845Z,52.04
2022-08-02T15:39:31.264Z,52.00
2022-08-02T15:44:34.389Z,52.33
2022-08-02T15:49:41.372Z,53.42
2022-08-02T15:54:44.613Z,53.53
2022-08-02T15:59:47.658Z,53.81
2022-08-02T16:04:50.637Z,53.30
2022-08-02T16:09:53.548Z,53.65
2022-08-02T16:14:56.473Z,54.23
2022-08-02T16:19:59.394Z,54.61
2022-08-02T16:25:02.819Z,55.32
2022-08-02T16:30:06.459Z,55.20
2022-08-02T16:35:09.480Z,55.40
2022-08-02T16:40:12.721Z,55.42
2022-08-02T16:45:15.695Z,55.26
2022-08-02T16:50:27.131Z,55.12
2022-08-02T16:55:30.770Z,55.63
2022-08-02T17:00:34.258Z,56.29
2022-08-02T17:05:56.013Z,55.77
2022-08-02T17:11:03.704Z,57.31
2022-08-02T17:16:26.216Z,56.68
2022-08-02T17:21:31.975Z,56.14
2022-08-02T17:26:38.269Z,55.58
2022-08-02T17:31:42.889Z,54.83
2022-08-02T17:36:49.762Z,55.09
2022-08-02T17:41:52.980Z,55.97
2022-08-02T17:46:56.411Z,56.13
2022-08-02T17:52:48.723Z,56.38
2022-08-02T17:57:22.396Z,56.37
2022-08-02T18:02:26.911Z,56.73
2022-08-02T18:07:30.112Z,57.56
2022-08-02T18:12:53.512Z,57.23
2022-08-02T18:17:59.083Z,57.69
2022-08-02T18:23:02.167Z,57.97
2022-08-02T18:28:05.383Z,58.11
2022-08-02T18:33:56.861Z,58.31
2022-08-02T18:38:31.659Z,58.50
2022-08-02T18:43:39.318Z,58.96
2022-08-02T18:48:47.760Z,59.61
2022-08-02T18:53:53.335Z,60.16
2022-08-02T18:58:58.347Z,60.07
2022-08-02T19:04:08.747Z,60.48
2022-08-02T19:09:13.579Z,60.90
2022-08-02T19:14:24.301Z,61.27
2022-08-02T19:19:31.158Z,61.66
2022-08-02T19:24:37.182Z,61.53
2022-08-02T19:29:49.075Z,61.34
2022-08-02T19:34:56.133Z,61.79
2022-08-02T19:39:59.058Z,62.11
2022-08-02T19:45:02.371Z,62.11
2022-08-02T19:50:08.311Z,67.90
2022-08-02T19:55:59.907Z,61.49
2022-08-02T20:00:36.681Z,53.94
2022-08-02T20:05:39.737Z,55.14
2022-08-02T20:10:45.944Z,57.02
2022-08-02T20:15:55.797Z,58.54
2022-08-02T20:21:00.253Z,59.83
2022-08-02T20:26:05.431Z,60.70
2022-08-02T20:31:10.128Z,61.95
2022-08-02T20:36:14.254Z,61.83
2022-08-02T20:41:21.492Z,67.57
2022-08-02T20:46:24.763Z,60.08
2022-08-02T20:51:33.495Z,55.81
2022-08-02T20:56:37.615Z,57.14
2022-08-02T21:01:41.226Z,57.96
2022-08-02T21:07:00.558Z,58.92
2022-08-02T21:12:05.275Z,60.18
2022-08-02T21:17:11.116Z,60.94
2022-08-02T21:22:14.623Z,66.84
2022-08-02T21:27:51.579Z,60.63
2022-08-02T21:32:41.897Z,54.60
2022-08-02T21:37:47.384Z,55.51
2022-08-02T21:42:50.236Z,56.77
2022-08-02T21:47:53.657Z,58.19
2022-08-02T21:52:56.473Z,59.32
2022-08-02T21:57:59.318Z,60.39
2022-08-02T22:03:22.727Z,66.59
2022-08-02T22:08:25.420Z,60.15
2022-08-02T22:13:29.546Z,54.29
2022-08-02T22:18:41.887Z,55.56
2022-08-02T22:23:54.560Z,57.02
2022-08-02T22:28:59.598Z,58.48
2022-08-02T22:34:05.537Z,59.75
2022-08-02T22:39:28.517Z,59.77
2022-08-02T22:44:31.564Z,67.50
2022-08-02T22:49:51.501Z,60.67
2022-08-02T22:54:57.548Z,55.10
2022-08-02T23:00:01.195Z,56.40
2022-08-02T23:05:05.173Z,58.32
2022-08-02T23:10:08.949Z,59.28
2022-08-02T23:15:11.869Z,60.59
2022-08-02T23:20:14.835Z,67.07
2022-08-02T23:25:18.071Z,61.22
2022-08-02T23:30:21.302Z,54.78
2022-08-02T23:35:24.217Z,55.49
2022-08-02T23:40:38.764Z,57.01
2022-08-02T23:45:46.192Z,58.34
2022-08-02T23:50:49.342Z,60.05
2022-08-02T23:55:52.253Z,66.08
